Time;durP1;ratioP1;P1;durP2;ratioP2;P2;SDS_P1;SDS_P2;PMS_P1;PMS_P2;Temp;Humidity;BMP_temperature;BMP_pressure;BME280_temperature;BME280_humidity;BME280_pressure;Samples;Min_cycle;Max_cycle;Signal;HPM_P1;HPM_P2
2021/01/22 00:01:33;;;;;;;7.47;3.30;;;9.20;99.90;;;;;;5030045;28;20121;-56
2021/01/22 00:03:59;;;;;;;9.55;3.35;;;9.20;99.90;;;;;;5029876;28;20380;-59
2021/01/22 00:06:26;;;;;;;8.38;2.90;;;9.20;99.90;;;;;;5030171;28;20033;-56
2021/01/22 00:08:52;;;;;;;8.45;3.00;;;9.20;99.90;;;;;;5029689;28;20519;-55
2021/01/22 00:11:18;;;;;;;7.63;2.92;;;9.20;99.90;;;;;;5030103;28;20033;-58
2021/01/22 00:13:44;;;;;;;8.98;3.15;;;9.20;99.90;;;;;;5029422;28;20022;-55
2021/01/22 00:16:09;;;;;;;10.45;3.38;;;9.20;99.90;;;;;;5027627;28;20481;-58
2021/01/22 00:18:35;;;;;;;8.52;3.63;;;9.30;99.90;;;;;;5028635;28;20037;-57
2021/01/22 00:21:02;;;;;;;8.00;2.90;;;9.40;99.90;;;;;;5029793;28;20156;-59
2021/01/22 00:23:28;;;;;;;8.63;3.20;;;9.50;99.90;;;;;;5029571;28;20025;-57
2021/01/22 00:25:54;;;;;;;8.90;3.03;;;9.60;99.90;;;;;;5028995;28;20026;-57
2021/01/22 00:28:19;;;;;;;9.13;2.90;;;9.60;99.90;;;;;;5027864;28;20039;-58
2021/01/22 00:30:45;;;;;;;9.40;3.05;;;9.60;99.90;;;;;;5028527;28;20406;-60
2021/01/22 00:33:10;;;;;;;6.32;2.70;;;9.70;99.90;;;;;;5030199;28;20072;-53
2021/01/22 00:35:36;;;;;;;9.98;3.30;;;9.70;99.90;;;;;;5029719;28;20139;-55
2021/01/22 00:38:03;;;;;;;6.88;2.90;;;9.80;99.90;;;;;;5028741;28;20026;-57
2021/01/22 00:40:28;;;;;;;7.75;3.00;;;9.70;99.90;;;;;;5028800;28;20428;-59
2021/01/22 00:42:54;;;;;;;8.23;2.90;;;9.70;99.90;;;;;;5029398;28;20053;-55
2021/01/22 00:45:20;;;;;;;9.38;3.08;;;9.70;99.90;;;;;;5028329;28;20069;-58
2021/01/22 00:47:46;;;;;;;12.60;3.05;;;9.70;99.90;;;;;;5024720;28;20041;-60
2021/01/22 00:50:12;;;;;;;10.23;3.45;;;9.70;99.90;;;;;;5017141;28;20073;-59
2021/01/22 00:52:38;;;;;;;9.82;3.78;;;9.70;99.90;;;;;;5028927;28;20052;-59
2021/01/22 00:55:05;;;;;;;10.43;3.60;;;9.70;99.90;;;;;;5059022;23;20052;-66
2021/01/22 00:57:31;;;;;;;9.70;3.20;;;9.70;99.90;;;;;;5051007;28;20389;-67
2021/01/22 00:59:57;;;;;;;9.38;4.35;;;9.60;99.90;;;;;;5049475;28;20055;-66
2021/01/22 01:02:22;;;;;;;12.27;5.10;;;9.50;99.90;;;;;;5049502;28;20120;-67
2021/01/22 01:04:48;;;;;;;13.75;7.60;;;8.90;99.90;;;;;;5028390;28;20025;-66
2021/01/22 01:07:14;;;;;;;14.32;7.70;;;8.70;99.90;;;;;;5014814;28;20029;-66
2021/01/22 01:09:40;;;;;;;16.33;8.18;;;8.60;99.90;;;;;;5013984;28;20037;-65
2021/01/22 01:12:08;;;;;;;15.52;8.10;;;8.60;99.90;;;;;;5032377;28;20057;-66
2021/01/22 01:14:34;;;;;;;13.88;7.53;;;8.60;99.90;;;;;;5032261;28;20057;-67
2021/01/22 01:16:59;;;;;;;13.32;7.03;;;8.50;99.90;;;;;;5019863;28;20033;-68
2021/01/22 01:19:25;;;;;;;14.57;7.30;;;8.50;99.90;;;;;;5031118;28;20033;-68
2021/01/22 01:21:51;;;;;;;13.77;6.47;;;8.50;99.90;;;;;;5019484;28;20025;-68
2021/01/22 01:24:16;;;;;;;13.43;6.80;;;8.50;99.90;;;;;;5014550;28;20132;-68
2021/01/22 01:26:42;;;;;;;12.20;6.20;;;8.50;99.90;;;;;;5028028;28;20029;-67
2021/01/22 01:29:08;;;;;;;13.55;6.63;;;8.50;99.90;;;;;;5031437;28;20388;-67
2021/01/22 01:31:34;;;;;;;11.40;5.57;;;8.50;99.90;;;;;;5016413;28;20112;-68
2021/01/22 01:34:00;;;;;;;12.63;5.70;;;8.50;99.90;;;;;;5030628;28;20028;-67
2021/01/22 01:36:26;;;;;;;11.57;5.70;;;8.50;99.90;;;;;;5032031;28;20104;-68
2021/01/22 01:38:51;;;;;;;12.60;6.60;;;8.60;99.90;;;;;;5031430;28;20021;-66
2021/01/22 01:41:17;;;;;;;13.15;6.47;;;8.60;99.90;;;;;;5030455;28;20389;-68
2021/01/22 01:43:43;;;;;;;14.43;7.40;;;8.50;99.90;;;;;;5031793;28;20546;-68
2021/01/22 01:46:09;;;;;;;14.48;7.00;;;8.50;99.90;;;;;;5031999;28;20037;-68
2021/01/22 01:48:35;;;;;;;15.23;6.40;;;8.50;99.90;;;;;;5031335;28;20040;-67
2021/01/22 01:51:01;;;;;;;13.52;6.03;;;8.60;99.90;;;;;;5031473;28;20409;-66
2021/01/22 01:53:27;;;;;;;12.85;5.90;;;8.60;99.90;;;;;;5031629;28;20053;-68
2021/01/22 01:55:53;;;;;;;13.13;6.60;;;8.60;99.90;;;;;;5032004;28;20053;-67
2021/01/22 01:58:19;;;;;;;18.83;7.90;;;8.60;99.90;;;;;;5013863;28;20361;-67
2021/01/22 02:00:45;;;;;;;13.07;7.22;;;8.60;99.90;;;;;;5014253;28;20112;-68
2021/01/22 02:03:11;;;;;;;14.52;6.18;;;8.40;99.90;;;;;;5032018;28;20141;-68
2021/01/22 02:05:37;;;;;;;17.20;6.15;;;8.40;99.90;;;;;;5014699;28;20505;-66
2021/01/22 02:08:03;;;;;;;16.17;6.30;;;8.30;99.90;;;;;;5013796;28;20030;-66
2021/01/22 02:10:31;;;;;;;15.18;7.20;;;8.30;99.90;;;;;;5031213;28;20385;-66
2021/01/22 02:12:57;;;;;;;14.70;6.60;;;8.30;99.90;;;;;;5032058;28;20059;-67
2021/01/22 02:15:23;;;;;;;14.13;6.70;;;8.30;99.90;;;;;;5029471;28;20063;-69
2021/01/22 02:17:51;;;;;;;14.82;6.47;;;8.30;99.90;;;;;;5031778;28;20049;-66
2021/01/22 02:21:02;;;;;;;18.55;6.75;;;8.30;99.90;;;;;;5031028;28;20029;-67
2021/01/22 02:23:30;;;;;;;13.98;6.28;;;8.30;99.90;;;;;;5031929;28;20026;-66
2021/01/22 02:26:20;;;;;;;17.50;12.30;;;8.40;99.90;;;;;;5025257;28;20055;-63
2021/01/22 02:28:46;;;;;;;14.48;7.28;;;;;;;;;;5030986;28;20038;-62
2021/01/22 02:31:14;;;;;;;10.90;5.45;;;;;;;;;;5031219;28;20295;-62
2021/01/22 02:33:41;;;;;;;9.50;5.00;;;;;;;;;;5013817;28;20026;-59
2021/01/22 02:36:07;;;;;;;9.82;4.70;;;;;;;;;;5013539;28;20036;-61
2021/01/22 02:38:34;;;;;;;10.40;5.30;;;8.20;99.90;;;;;;5030684;28;20083;-64
2021/01/22 02:41:00;;;;;;;10.60;5.10;;;6.10;99.90;;;;;;5031378;28;20018;-61
2021/01/22 02:43:27;;;;;;;10.27;4.60;;;5.90;99.90;;;;;;5024675;28;20032;-63
2021/01/22 02:45:53;;;;;;;9.25;4.20;;;5.70;99.90;;;;;;5013792;28;20052;-64
2021/01/22 02:48:19;;;;;;;7.82;4.10;;;5.50;99.90;;;;;;5030800;28;20056;-61
2021/01/22 02:50:47;;;;;;;9.85;4.10;;;5.30;99.90;;;;;;5030442;28;20064;-63
2021/01/22 02:53:12;;;;;;;8.35;4.10;;;5.00;99.90;;;;;;5031254;28;20021;-63
2021/01/22 02:55:38;;;;;;;9.65;4.00;;;4.80;99.90;;;;;;5034604;28;20041;-63
2021/01/22 02:58:16;;;;;;;9.45;4.30;;;4.80;99.90;;;;;;5034491;28;20108;-64
2021/01/22 03:00:47;;;;;;;7.65;3.80;;;4.60;99.90;;;;;;5029841;28;20025;-64
2021/01/22 03:03:33;;;;;;;8.25;3.53;;;4.60;99.90;;;;;;5016878;28;20030;-64
2021/01/22 03:06:00;;;;;;;8.02;3.65;;;4.50;99.90;;;;;;5034487;28;20059;-65
2021/01/22 03:08:27;;;;;;;8.63;3.60;;;4.40;99.90;;;;;;5016381;28;20029;-64
2021/01/22 03:10:54;;;;;;;6.03;3.10;;;4.40;99.90;;;;;;5034629;28;20033;-64
2021/01/22 03:13:20;;;;;;;8.00;3.35;;;4.30;99.90;;;;;;5034480;28;20037;-64
2021/01/22 03:15:46;;;;;;;6.30;3.15;;;4.20;99.90;;;;;;5032249;28;20508;-64
2021/01/22 03:18:13;;;;;;;5.78;3.08;;;3.90;99.90;;;;;;5032019;28;20029;-64
2021/01/22 03:20:40;;;;;;;7.43;3.00;;;3.80;99.90;;;;;;5031286;28;20108;-65
2021/01/22 03:23:05;;;;;;;7.45;3.08;;;3.80;99.90;;;;;;5024733;28;20107;-65
2021/01/22 03:25:31;;;;;;;7.03;3.30;;;3.80;99.90;;;;;;5028169;28;20478;-65
2021/01/22 03:27:57;;;;;;;7.18;3.10;;;3.80;99.90;;;;;;5032749;28;20037;-65
2021/01/22 03:30:23;;;;;;;7.22;3.08;;;3.70;99.90;;;;;;5033538;28;20029;-65
2021/01/22 03:32:48;;;;;;;6.75;3.10;;;3.60;99.90;;;;;;5033990;28;20389;-66
2021/01/22 03:35:14;;;;;;;6.72;2.90;;;3.60;99.90;;;;;;5026097;28;20024;-66
2021/01/22 03:37:40;;;;;;;6.18;2.80;;;3.70;99.90;;;;;;5015798;28;20108;-66
2021/01/22 03:40:08;;;;;;;5.95;2.80;;;3.70;99.90;;;;;;5033723;28;20421;-66
2021/01/22 03:42:33;;;;;;;6.83;3.10;;;3.60;99.90;;;;;;5034117;28;20535;-66
2021/01/22 03:44:59;;;;;;;6.57;3.00;;;3.60;99.90;;;;;;5016647;28;20029;-66
2021/01/22 03:47:25;;;;;;;7.60;2.83;;;3.70;99.90;;;;;;5033796;28;20025;-65
2021/01/22 03:49:51;;;;;;;11.25;3.30;;;3.70;99.90;;;;;;5015396;28;20025;-66
2021/01/22 03:52:17;;;;;;;12.88;3.60;;;3.70;99.90;;;;;;4997477;28;20033;-66
2021/01/22 03:54:42;;;;;;;10.88;3.35;;;3.70;99.90;;;;;;5033669;28;20032;-65
2021/01/22 03:57:08;;;;;;;11.18;3.50;;;3.70;99.90;;;;;;5027850;28;20048;-66
2021/01/22 03:59:33;;;;;;;12.00;3.90;;;3.60;99.90;;;;;;5033436;28;20393;-65
2021/01/22 04:01:59;;;;;;;11.93;3.88;;;3.60;99.90;;;;;;5028034;28;20037;-66
2021/01/22 04:04:24;;;;;;;11.52;3.47;;;3.60;99.90;;;;;;5015441;28;20384;-65
2021/01/22 04:06:50;;;;;;;10.57;4.00;;;3.60;99.90;;;;;;5033130;28;20038;-66
2021/01/22 04:09:16;;;;;;;14.38;4.70;;;3.60;99.90;;;;;;5032978;28;20032;-66
2021/01/22 04:11:43;;;;;;;13.95;4.80;;;3.60;99.90;;;;;;5015624;28;20036;-66
2021/01/22 04:14:08;;;;;;;13.73;4.38;;;3.60;99.90;;;;;;5033228;28;20112;-67
2021/01/22 04:16:34;;;;;;;14.52;4.43;;;3.60;99.90;;;;;;5026200;28;20544;-66
2021/01/22 04:19:00;;;;;;;14.57;5.10;;;3.60;99.90;;;;;;5031287;28;20031;-66
2021/01/22 04:21:26;;;;;;;14.55;5.05;;;3.70;99.90;;;;;;5033332;28;20021;-66
2021/01/22 04:23:52;;;;;;;15.93;5.63;;;3.60;99.90;;;;;;5029615;28;20033;-66
2021/01/22 04:26:18;;;;;;;15.05;5.85;;;3.60;99.90;;;;;;5033197;28;20500;-67
2021/01/22 04:28:44;;;;;;;13.27;4.28;;;3.60;99.90;;;;;;5032511;28;20029;-66
2021/01/22 04:31:10;;;;;;;16.92;4.97;;;3.70;99.90;;;;;;5032939;28;20500;-66
2021/01/22 04:33:35;;;;;;;16.17;5.57;;;3.60;99.90;;;;;;5032759;28;20036;-66
2021/01/22 04:36:02;;;;;;;15.50;5.05;;;3.60;99.90;;;;;;5032960;28;20021;-67
2021/01/22 04:38:27;;;;;;;14.25;4.63;;;3.60;99.90;;;;;;5032060;28;20057;-66
2021/01/22 04:40:55;;;;;;;16.00;6.15;;;3.60;99.90;;;;;;5033118;28;20032;-67
2021/01/22 04:43:21;;;;;;;;;;;3.60;99.90;;;;;;5033279;28;20033;-67
2021/01/22 04:45:48;;;;;;;16.55;6.18;;;3.70;99.90;;;;;;5032464;28;19912;-67
2021/01/22 04:48:14;;;;;;;16.85;5.75;;;3.70;99.90;;;;;;5032557;28;20040;-66
2021/01/22 04:50:40;;;;;;;17.98;6.90;;;3.70;99.90;;;;;;5032355;28;20083;-66
2021/01/22 04:53:10;;;;;;;19.23;7.15;;;3.70;99.90;;;;;;5032240;28;20457;-66
2021/01/22 04:55:41;;;;;;;17.90;6.63;;;3.70;99.90;;;;;;5016185;28;20033;-66
2021/01/22 04:58:09;;;;;;;20.23;6.85;;;3.60;99.90;;;;;;5032408;28;20408;-67
2021/01/22 05:00:36;;;;;;;18.65;7.38;;;3.60;99.90;;;;;;5032032;28;20091;-67
2021/01/22 05:03:02;;;;;;;19.80;7.32;;;3.60;99.90;;;;;;5026411;28;20116;-67
2021/01/22 05:05:28;;;;;;;19.17;7.40;;;3.70;99.90;;;;;;5032164;28;20033;-67
2021/01/22 05:07:53;;;;;;;20.58;7.85;;;3.70;99.90;;;;;;5029471;28;20029;-66
2021/01/22 05:10:19;;;;;;;18.10;7.38;;;3.60;99.90;;;;;;5031871;28;20035;-66
2021/01/22 05:12:45;;;;;;;21.38;8.35;;;3.60;99.90;;;;;;5030953;28;20560;-66
2021/01/22 05:15:18;;;;;;;18.80;8.35;;;3.60;99.90;;;;;;5030645;28;20113;-66
2021/01/22 05:18:11;;;;;;;18.63;7.93;;;3.60;99.90;;;;;;5031236;28;20018;-66
2021/01/22 05:20:42;;;;;;;19.30;7.43;;;3.60;99.90;;;;;;5028986;28;20065;-66
2021/01/22 05:23:10;;;;;;;24.88;8.82;;;3.60;99.90;;;;;;5032120;28;20489;-66
2021/01/22 05:26:02;;;;;;;21.17;9.02;;;3.60;99.90;;;;;;5015013;28;20037;-66
2021/01/22 05:28:34;;;;;;;21.08;8.40;;;3.60;99.90;;;;;;5031293;28;20033;-66
2021/01/22 05:31:01;;;;;;;22.75;8.38;;;3.60;99.90;;;;;;5019620;28;20053;-67
2021/01/22 05:33:27;;;;;;;20.15;8.63;;;3.60;99.90;;;;;;5030183;28;20076;-67
2021/01/22 05:35:53;;;;;;;21.70;9.50;;;3.60;99.90;;;;;;5031651;28;20037;-67
2021/01/22 05:38:40;;;;;;;22.00;9.77;;;3.60;99.90;;;;;;5014612;28;20373;-66
2021/01/22 05:41:07;;;;;;;23.13;10.02;;;3.60;99.90;;;;;;5031826;28;20025;-67
2021/01/22 05:43:35;;;;;;;21.15;8.98;;;3.60;99.90;;;;;;5031858;28;20100;-67
2021/01/22 05:46:01;;;;;;;21.75;9.48;;;3.60;99.90;;;;;;5031574;28;20128;-67
2021/01/22 05:48:28;;;;;;;22.48;8.75;;;3.70;99.90;;;;;;5031577;28;20377;-67
2021/01/22 05:50:58;;;;;;;24.23;9.95;;;3.70;99.90;;;;;;4997814;28;20033;-66
2021/01/22 05:53:25;;;;;;;21.15;9.57;;;3.70;99.90;;;;;;5013657;28;20061;-67
2021/01/22 05:56:05;;;;;;;22.63;9.50;;;3.70;99.90;;;;;;5030626;28;20071;-67
2021/01/22 05:58:32;;;;;;;21.90;10.15;;;3.60;99.90;;;;;;5030887;28;20026;-67
2021/01/22 06:01:11;;;;;;;21.90;9.50;;;3.70;99.90;;;;;;5031800;28;20061;-67
2021/01/22 06:03:39;;;;;;;21.35;9.32;;;3.70;99.90;;;;;;5031454;28;20022;-68
2021/01/22 06:06:06;;;;;;;22.27;10.02;;;3.60;99.90;;;;;;5025140;28;20451;-67
2021/01/22 06:08:32;;;;;;;28.70;11.90;;;3.70;99.90;;;;;;5013100;28;20401;-67
2021/01/22 06:10:59;;;;;;;23.58;10.43;;;3.70;99.90;;;;;;4997253;28;20188;-67
2021/01/22 06:13:27;;;;;;;25.85;11.82;;;3.60;99.90;;;;;;5013427;28;20534;-66
2021/01/22 06:15:58;;;;;;;24.70;11.05;;;3.70;99.90;;;;;;5031539;28;20036;-67
2021/01/22 06:18:34;;;;;;;25.63;10.77;;;3.70;99.90;;;;;;5030383;28;20032;-67
2021/01/22 06:21:14;;;;;;;25.13;11.82;;;3.60;99.90;;;;;;5031290;28;20489;-67
2021/01/22 06:23:40;;;;;;;26.25;11.82;;;3.60;99.90;;;;;;5031267;28;20040;-66
2021/01/22 06:26:05;;;;;;;26.85;11.65;;;3.60;99.90;;;;;;5020318;28;20112;-66
2021/01/22 06:28:32;;;;;;;26.00;13.30;;;3.70;99.90;;;;;;5032407;28;20033;-67
2021/01/22 06:30:59;;;;;;;24.88;12.70;;;3.70;99.90;;;;;;5034145;28;20516;-66
2021/01/22 06:33:25;;;;;;;24.65;12.75;;;3.70;99.90;;;;;;5035166;28;20090;-66
2021/01/22 06:35:52;;;;;;;26.67;12.95;;;3.80;99.90;;;;;;5035211;28;20025;-67
2021/01/22 06:38:21;;;;;;;29.05;14.18;;;3.80;99.90;;;;;;5034421;28;20017;-66
2021/01/22 06:40:47;;;;;;;27.67;12.88;;;3.80;99.90;;;;;;5017144;28;20022;-67
2021/01/22 06:43:12;;;;;;;28.42;14.05;;;3.80;99.90;;;;;;5016602;28;20022;-65
2021/01/22 06:45:38;;;;;;;30.20;13.00;;;3.80;99.90;;;;;;5034975;28;20033;-66
2021/01/22 06:48:06;;;;;;;29.40;14.45;;;3.90;99.90;;;;;;5034086;28;20083;-66
2021/01/22 06:50:33;;;;;;;30.65;13.90;;;3.90;99.90;;;;;;5033832;28;20032;-66
2021/01/22 06:53:15;;;;;;;27.20;13.02;;;3.90;99.90;;;;;;5034809;28;20025;-66
2021/01/22 06:55:50;;;;;;;28.13;13.27;;;3.90;99.90;;;;;;5057175;23;20509;-54
2021/01/22 06:58:29;;;;;;;30.05;14.70;;;3.90;99.90;;;;;;5054475;28;20017;-57
2021/01/22 07:00:58;;;;;;;29.55;14.65;;;3.90;99.90;;;;;;5049279;28;20025;-59
2021/01/22 07:03:36;;;;;;;28.85;14.93;;;3.90;99.90;;;;;;5036624;28;20408;-60
2021/01/22 07:06:03;;;;;;;25.88;13.82;;;3.90;99.90;;;;;;5011088;28;20018;-60
2021/01/22 07:09:00;;;;;;;28.15;13.43;;;4.00;99.90;;;;;;5000829;28;20034;-61
2021/01/22 07:11:46;;;;;;;30.10;15.65;;;4.00;99.90;;;;;;5014188;28;20068;-56
2021/01/22 07:14:32;;;;;;;28.98;14.70;;;4.00;99.90;;;;;;5022777;28;20067;-59
2021/01/22 07:17:00;;;;;;;30.65;15.93;;;4.00;99.90;;;;;;5034541;28;20025;-61
2021/01/22 07:19:27;;;;;;;32.30;15.85;;;4.10;99.90;;;;;;5034053;28;20025;-61
2021/01/22 07:21:53;;;;;;;32.88;15.50;;;4.10;99.90;;;;;;5044988;28;20053;-60
2021/01/22 07:24:20;;;;;;;31.30;16.35;;;4.10;99.90;;;;;;5036266;28;20040;-58
2021/01/22 07:26:50;;;;;;;31.02;16.83;;;4.10;99.90;;;;;;5036863;28;20028;-57
2021/01/22 07:29:24;;;;;;;35.33;17.40;;;4.10;99.90;;;;;;5035629;28;20021;-56
2021/01/22 07:32:06;;;;;;;33.22;17.27;;;4.10;99.90;;;;;;5041856;28;20033;-61
2021/01/22 07:34:51;;;;;;;30.98;16.58;;;4.10;99.90;;;;;;5039795;28;20074;-57
2021/01/22 07:37:22;;;;;;;30.45;16.98;;;4.10;99.90;;;;;;5035755;28;20021;-58
2021/01/22 07:39:50;;;;;;;31.15;17.13;;;4.20;99.90;;;;;;5026084;28;20028;-61
2021/01/22 07:42:20;;;;;;;33.00;17.13;;;4.20;99.90;;;;;;5017940;28;20065;-58
2021/01/22 07:44:51;;;;;;;33.58;16.00;;;4.20;99.90;;;;;;5017744;28;20057;-61
2021/01/22 07:47:33;;;;;;;30.35;15.50;;;4.30;99.90;;;;;;5034247;28;20033;-59
2021/01/22 07:50:05;;;;;;;32.25;16.80;;;4.20;99.90;;;;;;5031912;28;20037;-60
2021/01/22 07:52:34;;;;;;;30.60;15.65;;;4.20;99.90;;;;;;5032542;28;20032;-60
2021/01/22 07:55:00;;;;;;;30.17;16.83;;;4.20;99.90;;;;;;5031819;28;20034;-61
2021/01/22 07:57:26;;;;;;;32.45;14.60;;;4.20;99.90;;;;;;5035634;28;20075;-53
2021/01/22 07:59:53;;;;;;;32.53;16.08;;;4.20;99.90;;;;;;5052416;28;20488;-60
2021/01/22 08:02:23;;;;;;;30.23;15.35;;;4.20;99.90;;;;;;5053228;28;20314;-61
2021/01/22 08:05:00;;;;;;;29.38;15.48;;;4.20;99.90;;;;;;5052757;28;20051;-57
2021/01/22 08:07:39;;;;;;;33.53;15.80;;;4.20;99.90;;;;;;5018478;28;20033;-59
2021/01/22 08:10:06;;;;;;;31.65;16.13;;;4.30;99.90;;;;;;5011695;28;20044;-55
2021/01/22 08:12:32;;;;;;;32.38;12.57;;;4.30;99.90;;;;;;5014628;28;20105;-63
2021/01/22 08:14:58;;;;;;;29.00;14.50;;;4.30;99.90;;;;;;5021847;28;20026;-60
2021/01/22 08:17:25;;;;;;;26.85;13.52;;;4.40;99.90;;;;;;5021468;28;20063;-59
2021/01/22 08:19:51;;;;;;;29.05;14.70;;;4.40;99.90;;;;;;5031610;28;20025;-60
2021/01/22 08:22:17;;;;;;;26.85;13.38;;;4.40;99.90;;;;;;5032435;28;20032;-60
2021/01/22 08:24:50;;;;;;;27.38;14.25;;;4.40;99.90;;;;;;5028207;28;20029;-58
2021/01/22 08:27:19;;;;;;;30.02;14.73;;;4.50;99.90;;;;;;5032362;28;20424;-59
2021/01/22 08:29:46;;;;;;;30.60;14.35;;;4.50;99.90;;;;;;5033970;28;20476;-58
2021/01/22 08:32:14;;;;;;;28.85;15.27;;;4.50;99.90;;;;;;5028698;28;20406;-61
2021/01/22 08:34:40;;;;;;;28.25;15.38;;;4.60;99.90;;;;;;5030713;28;20485;-57
2021/01/22 08:37:08;;;;;;;32.55;15.88;;;4.60;99.90;;;;;;5049930;28;20049;-61
2021/01/22 08:39:55;;;;;;;32.50;14.02;;;4.60;99.90;;;;;;5041167;28;20056;-59
2021/01/22 08:42:21;;;;;;;32.53;14.90;;;4.60;99.90;;;;;;5030909;28;20107;-58
2021/01/22 08:44:54;;;;;;;29.63;15.20;;;4.60;99.90;;;;;;5032471;28;20033;-58
2021/01/22 08:47:20;;;;;;;27.27;12.38;;;4.70;99.90;;;;;;5032935;28;20088;-58
2021/01/22 08:50:16;;;;;;;26.50;13.32;;;4.70;99.90;;;;;;5031283;28;20032;-60
2021/01/22 08:52:41;;;;;;;27.15;12.90;;;4.70;99.90;;;;;;5032485;28;20040;-58
2021/01/22 08:55:20;;;;;;;26.30;12.93;;;4.70;99.90;;;;;;5052348;28;20033;-59
2021/01/22 08:58:09;;;;;;;32.55;13.57;;;4.70;99.90;;;;;;5034501;28;20131;-59
2021/01/22 09:00:35;;;;;;;31.98;13.40;;;4.70;99.90;;;;;;5033955;28;20031;-60
2021/01/22 09:03:17;;;;;;;29.17;13.32;;;4.80;99.90;;;;;;5029505;28;20120;-58
2021/01/22 09:05:49;;;;;;;26.90;13.25;;;4.80;99.90;;;;;;4995737;28;20040;-60
2021/01/22 09:08:15;;;;;;;30.58;13.57;;;4.80;99.90;;;;;;5014086;28;20393;-61
2021/01/22 09:10:45;;;;;;;34.15;15.57;;;4.90;99.90;;;;;;5012536;28;20022;-59
2021/01/22 09:13:16;;;;;;;32.22;13.85;;;4.90;99.90;;;;;;5028164;28;20095;-59
2021/01/22 09:15:43;;;;;;;27.90;14.35;;;4.90;99.90;;;;;;5034451;28;20018;-59
2021/01/22 09:18:24;;;;;;;33.45;14.80;;;5.00;99.90;;;;;;5052417;28;20104;-59
2021/01/22 09:20:57;;;;;;;28.83;14.35;;;5.00;99.90;;;;;;5037659;28;20018;-63
2021/01/22 09:23:23;;;;;;;26.30;12.52;;;4.90;99.90;;;;;;5030875;28;20021;-59
2021/01/22 09:25:49;;;;;;;31.58;15.20;;;4.90;99.90;;;;;;5032248;28;20452;-63
2021/01/22 09:28:14;;;;;;;33.78;13.93;;;5.00;99.90;;;;;;5032054;28;20033;-61
2021/01/22 09:30:40;;;;;;;28.83;13.00;;;5.00;99.90;;;;;;5030644;28;20032;-60
2021/01/22 09:33:06;;;;;;;29.85;11.20;;;5.10;99.90;;;;;;5040722;28;20025;-63
2021/01/22 09:35:31;;;;;;;27.25;12.18;;;5.10;99.90;;;;;;5033447;28;20026;-61
2021/01/22 09:37:59;;;;;;;23.80;11.52;;;5.10;99.90;;;;;;5033624;28;20068;-62
2021/01/22 09:40:25;;;;;;;25.45;12.15;;;5.20;99.90;;;;;;5051511;28;20089;-59
2021/01/22 09:42:51;;;;;;;25.77;12.05;;;5.20;99.90;;;;;;5031474;28;20124;-60
2021/01/22 09:45:17;;;;;;;24.67;11.48;;;5.20;99.90;;;;;;5031875;28;20036;-63
2021/01/22 09:47:43;;;;;;;28.58;12.48;;;5.20;99.90;;;;;;5030439;28;20036;-55
2021/01/22 09:50:11;;;;;;;25.40;10.82;;;5.30;99.90;;;;;;5030827;28;20014;-59
2021/01/22 09:52:38;;;;;;;24.27;11.95;;;5.30;99.90;;;;;;5031993;28;20038;-59
2021/01/22 09:55:12;;;;;;;26.33;12.35;;;5.30;99.90;;;;;;5014213;28;20037;-61
2021/01/22 09:57:38;;;;;;;25.23;11.23;;;5.40;99.90;;;;;;5018201;28;20025;-60
2021/01/22 10:00:06;;;;;;;23.88;11.43;;;5.40;99.90;;;;;;5011393;28;20033;-61
2021/01/22 10:02:32;;;;;;;20.87;8.97;;;5.40;99.90;;;;;;5021499;28;20029;-59
2021/01/22 10:04:57;;;;;;;23.33;10.52;;;5.40;99.90;;;;;;5034852;28;20526;-62
2021/01/22 10:07:23;;;;;;;24.10;10.90;;;5.50;99.90;;;;;;5034549;28;20048;-63
2021/01/22 10:09:49;;;;;;;24.40;10.32;;;5.50;99.90;;;;;;5033607;28;20323;-62
2021/01/22 10:12:15;;;;;;;25.08;10.23;;;5.50;99.90;;;;;;5035106;28;20108;-60
2021/01/22 10:14:41;;;;;;;20.52;7.63;;;5.60;99.90;;;;;;5035321;28;20500;-61
2021/01/22 10:17:07;;;;;;;20.27;8.68;;;5.50;99.90;;;;;;5034560;28;20033;-60
2021/01/22 10:19:32;;;;;;;20.30;8.57;;;5.60;99.90;;;;;;5042184;28;20651;-61
2021/01/22 10:21:58;;;;;;;20.15;8.05;;;5.60;99.90;;;;;;5052560;28;20029;-61
2021/01/22 10:24:24;;;;;;;21.55;8.70;;;5.70;99.90;;;;;;5042546;28;20098;-61
2021/01/22 10:26:49;;;;;;;19.85;8.10;;;5.80;99.90;;;;;;4656702;28;10000436;-58
2021/01/22 10:29:16;;;;;;;21.50;8.75;;;5.90;99.90;;;;;;5033604;28;20021;-61
2021/01/22 10:31:42;;;;;;;19.90;8.35;;;5.90;99.90;;;;;;5032080;28;20025;-58
2021/01/22 10:34:08;;;;;;;19.58;7.53;;;6.00;99.90;;;;;;5048805;28;20044;-60
2021/01/22 10:36:35;;;;;;;19.08;7.03;;;5.90;99.90;;;;;;5041474;28;20115;-58
2021/01/22 10:39:01;;;;;;;19.25;8.23;;;6.00;99.90;;;;;;5032977;28;20021;-58
2021/01/22 10:41:27;;;;;;;20.65;7.03;;;6.00;99.90;;;;;;5034022;28;20024;-59
2021/01/22 10:43:52;;;;;;;21.95;8.65;;;6.00;99.90;;;;;;5033233;28;20106;-57
2021/01/22 10:46:18;;;;;;;21.48;7.25;;;6.00;99.90;;;;;;5033330;28;20040;-58
2021/01/22 10:48:43;;;;;;;22.60;7.45;;;6.00;99.90;;;;;;5032450;28;20032;-58
2021/01/22 10:51:09;;;;;;;21.55;8.95;;;6.00;99.90;;;;;;5050568;28;20032;-58
2021/01/22 10:53:35;;;;;;;22.02;7.32;;;6.10;99.90;;;;;;5033366;28;20461;-52
2021/01/22 10:56:01;;;;;;;19.02;6.93;;;6.10;99.90;;;;;;5033423;28;20032;-59
2021/01/22 10:58:27;;;;;;;19.15;7.28;;;6.10;99.90;;;;;;5050882;28;20053;-54
2021/01/22 11:00:53;;;;;;;20.08;6.60;;;6.10;99.90;;;;;;5048582;28;20083;-49
2021/01/22 11:03:19;;;;;;;20.10;7.30;;;6.10;99.90;;;;;;5031332;28;20373;-52
2021/01/22 11:05:45;;;;;;;19.95;6.95;;;6.20;99.90;;;;;;5013291;28;20029;-56
2021/01/22 11:08:11;;;;;;;22.23;7.68;;;6.10;99.90;;;;;;5027545;28;20025;-54
2021/01/22 11:10:37;;;;;;;28.52;8.15;;;6.10;99.90;;;;;;5030664;28;20036;-58
2021/01/22 11:13:03;;;;;;;19.90;6.82;;;6.10;99.90;;;;;;5031220;28;20219;-55
2021/01/22 11:15:37;;;;;;;19.38;7.55;;;6.10;99.90;;;;;;5029484;28;20100;-59
2021/01/22 11:18:03;;;;;;;21.13;8.05;;;6.20;99.90;;;;;;5030713;28;20048;-58
2021/01/22 11:20:28;;;;;;;21.17;7.40;;;6.30;99.90;;;;;;5029350;28;20769;-57
2021/01/22 11:22:54;;;;;;;22.77;7.63;;;6.30;99.90;;;;;;5020703;28;20650;-60
2021/01/22 11:25:21;;;;;;;20.35;7.70;;;6.20;99.90;;;;;;4995232;28;20168;-56
2021/01/22 11:27:48;;;;;;;20.67;7.22;;;6.20;99.90;;;;;;5016666;28;20029;-54
2021/01/22 11:30:14;;;;;;;20.50;7.03;;;6.10;99.90;;;;;;5017682;28;20040;-59
2021/01/22 11:32:40;;;;;;;17.83;7.22;;;6.10;99.90;;;;;;5052322;28;20037;-58
2021/01/22 11:35:12;;;;;;;18.48;6.82;;;6.10;99.90;;;;;;5036675;28;20198;-57
2021/01/22 11:37:38;;;;;;;19.85;6.07;;;6.30;99.90;;;;;;5040288;28;20100;-57
2021/01/22 11:40:06;;;;;;;17.83;6.72;;;6.30;99.90;;;;;;5033702;28;20032;-56
2021/01/22 11:42:32;;;;;;;20.20;7.30;;;6.40;99.90;;;;;;5036018;28;20491;-56
2021/01/22 11:44:58;;;;;;;16.77;6.95;;;7.00;99.90;;;;;;5034547;28;20287;-58
2021/01/22 11:47:24;;;;;;;20.98;6.35;;;;;;;;;;5033638;28;20029;-55
2021/01/22 11:49:50;;;;;;;17.25;6.35;;;;;;;;;;5015861;28;20032;-53
2021/01/22 11:52:16;;;;;;;17.38;6.18;;;7.60;99.90;;;;;;5034430;28;20033;-58
2021/01/22 11:54:43;;;;;;;22.13;6.85;;;8.60;99.90;;;;;;4998919;28;20508;-56
2021/01/22 11:57:09;;;;;;;18.77;6.93;;;8.80;99.90;;;;;;4996829;28;20021;-56
2021/01/22 11:59:34;;;;;;;16.00;6.55;;;9.00;99.90;;;;;;5014044;28;20373;-56
2021/01/22 12:02:00;;;;;;;18.88;6.53;;;9.00;99.90;;;;;;5014100;28;20455;-56
2021/01/22 12:04:26;;;;;;;20.38;6.70;;;8.40;99.90;;;;;;5014275;28;20511;-56
2021/01/22 12:06:52;;;;;;;19.10;7.10;;;7.60;99.90;;;;;;5001985;28;20026;-56
2021/01/22 12:09:17;;;;;;;17.40;6.60;;;7.10;99.90;;;;;;5017943;28;20057;-55
2021/01/22 12:11:43;;;;;;;20.65;6.95;;;6.90;99.90;;;;;;4987341;28;20079;-56
2021/01/22 12:14:09;;;;;;;18.13;6.25;;;6.90;99.90;;;;;;5042376;28;20036;-57
2021/01/22 12:16:35;;;;;;;16.75;6.88;;;7.10;99.90;;;;;;5034786;28;20025;-55
2021/01/22 12:19:00;;;;;;;16.33;6.45;;;6.90;99.90;;;;;;5051076;28;20028;-53
2021/01/22 12:21:26;;;;;;;18.27;6.20;;;6.90;99.90;;;;;;5053349;28;20025;-54
2021/01/22 12:23:52;;;;;;;15.98;6.30;;;7.10;99.90;;;;;;5052602;28;20441;-58
2021/01/22 12:26:17;;;;;;;17.58;6.20;;;7.00;99.90;;;;;;5034840;28;20533;-59
2021/01/22 12:28:43;;;;;;;19.02;6.82;;;7.10;99.90;;;;;;5050778;28;20057;-55
2021/01/22 12:31:10;;;;;;;18.67;6.03;;;6.90;99.90;;;;;;5032597;28;20075;-58
2021/01/22 12:33:37;;;;;;;19.08;6.18;;;6.70;99.90;;;;;;5052290;28;20285;-53
2021/01/22 12:36:06;;;;;;;17.50;6.25;;;6.70;99.90;;;;;;5054949;28;20017;-55
2021/01/22 12:38:32;;;;;;;17.60;6.75;;;6.70;99.90;;;;;;5052872;28;20470;-56
2021/01/22 12:40:59;;;;;;;16.15;6.55;;;7.00;99.90;;;;;;5036123;28;20049;-54
2021/01/22 12:43:24;;;;;;;17.25;5.70;;;7.20;99.90;;;;;;5035568;28;20111;-54
2021/01/22 12:45:50;;;;;;;21.13;6.85;;;7.20;99.90;;;;;;5053416;28;20433;-56
2021/01/22 12:48:15;;;;;;;16.65;6.70;;;7.10;99.90;;;;;;5053051;28;20025;-56
2021/01/22 12:50:43;;;;;;;20.10;6.28;;;7.30;99.90;;;;;;5052727;28;20401;-57
2021/01/22 12:53:09;;;;;;;17.48;6.20;;;7.50;99.90;;;;;;5034376;28;20025;-58